Time;durP1;ratioP1;P1;durP2;ratioP2;P2;SDS_P1;SDS_P2;PMS_P1;PMS_P2;Temp;Humidity;BMP_temperature;BMP_pressure;BME280_temperature;BME280_humidity;BME280_pressure;Samples;Min_cycle;Max_cycle;Signal;HPM_P1;HPM_P2
2021/06/29 00:00:47;;;;;;;6.57;5.97;;;;;;;21.64;100.00;100528.56;4986132;28;20218;-77
2021/06/29 00:03:16;;;;;;;6.57;6.07;;;;;;;21.66;100.00;100531.78;4987718;28;20985;-78
2021/06/29 00:05:41;;;;;;;6.70;6.20;;;;;;;21.71;100.00;100528.78;4995205;28;20232;-77
2021/06/29 00:08:09;;;;;;;6.57;6.07;;;;;;;21.71;100.00;100531.53;4966190;28;20191;-77
2021/06/29 00:10:38;;;;;;;6.63;6.07;;;;;;;21.82;100.00;100524.38;4942162;28;20233;-77
2021/06/29 00:13:05;;;;;;;6.53;5.93;;;;;;;21.77;100.00;100524.63;4982044;28;20859;-77
2021/06/29 00:15:30;;;;;;;6.63;6.13;;;;;;;21.66;100.00;100527.03;4955493;28;20233;-77
2021/06/29 00:17:56;;;;;;;6.93;6.43;;;;;;;21.74;100.00;100533.63;4968872;28;20173;-77
2021/06/29 00:20:27;;;;;;;6.75;6.20;;;;;;;21.72;100.00;100530.38;5010726;28;20271;-78
2021/06/29 00:22:52;;;;;;;7.75;7.05;;;;;;;21.80;100.00;100530.25;4986402;28;20183;-77
2021/06/29 00:25:22;;;;;;;7.15;6.45;;;;;;;21.67;100.00;100527.88;4955623;28;20221;-77
2021/06/29 00:27:50;;;;;;;7.38;6.78;;;;;;;21.37;100.00;100529.25;4972659;28;20206;-77
2021/06/29 00:30:19;;;;;;;7.80;7.20;;;;;;;21.32;100.00;100521.19;4981333;28;20322;-77
2021/06/29 00:32:47;;;;;;;7.88;7.20;;;;;;;21.22;100.00;100513.34;4989121;28;20193;-77
2021/06/29 00:35:13;;;;;;;8.13;7.43;;;;;;;21.16;100.00;100515.91;4990140;28;20221;-78
2021/06/29 00:37:38;;;;;;;8.27;7.63;;;;;;;21.23;100.00;100511.41;4992494;28;20213;-78
2021/06/29 00:40:05;;;;;;;8.40;7.70;;;;;;;21.22;100.00;100508.97;4992888;28;20173;-77
2021/06/29 00:42:37;;;;;;;8.75;8.05;;;;;;;21.25;100.00;100509.91;4983127;28;20190;-78
2021/06/29 00:45:04;;;;;;;9.13;8.43;;;;;;;21.10;100.00;100500.66;4990417;28;20251;-77
2021/06/29 00:47:32;;;;;;;9.68;8.77;;;;;;;20.93;100.00;100501.72;4974122;28;20264;-77
2021/06/29 00:50:00;;;;;;;9.43;8.63;;;;;;;20.67;100.00;100500.41;4992328;28;20537;-77
2021/06/29 00:52:26;;;;;;;10.05;9.18;;;;;;;20.76;100.00;100490.06;4993770;28;20580;-77
2021/06/29 00:54:51;;;;;;;9.45;8.75;;;;;;;20.74;100.00;100494.31;4973511;28;20197;-77
2021/06/29 00:57:17;;;;;;;10.40;9.52;;;;;;;20.64;100.00;100492.00;4966779;28;20232;-77
2021/06/29 00:59:44;;;;;;;10.35;9.50;;;;;;;20.60;100.00;100485.50;4985832;28;20190;-77
2021/06/29 01:02:10;;;;;;;10.27;9.38;;;;;;;20.54;100.00;100492.41;4970340;28;20237;-77
2021/06/29 01:04:41;;;;;;;10.85;9.95;;;;;;;20.49;100.00;100490.69;4988770;28;20220;-77
2021/06/29 01:07:12;;;;;;;10.50;9.60;;;;;;;20.55;100.00;100494.84;4993794;28;20228;-77
2021/06/29 01:09:43;;;;;;;10.23;9.38;;;;;;;20.56;100.00;100490.91;4978080;28;20190;-77
2021/06/29 01:12:11;;;;;;;11.35;10.45;;;;;;;20.57;100.00;100488.97;4977103;28;20214;-77
2021/06/29 01:14:39;;;;;;;11.20;10.15;;;;;;;20.42;100.00;100486.03;4975661;28;20186;-77
2021/06/29 01:17:07;;;;;;;11.13;10.20;;;;;;;20.49;100.00;100487.09;4967291;28;20234;-77
2021/06/29 01:22:07;;;;;;;9.98;9.07;;;;;;;20.64;100.00;100497.50;4990407;28;20224;-77
2021/06/29 01:24:33;;;;;;;10.55;9.55;;;;;;;20.68;100.00;100488.22;4980208;28;21101;-78
2021/06/29 01:32:13;;;;;;;9.52;8.73;;;;;;;20.72;100.00;100489.13;4973715;28;20235;-77
2021/06/29 01:35:02;;;;;;;10.07;9.18;;;;;;;20.73;100.00;100473.38;4989279;28;20195;-77
2021/06/29 01:37:28;;;;;;;9.55;8.75;;;;;;;20.70;100.00;100480.41;4992434;28;20241;-77
2021/06/29 01:40:08;;;;;;;8.98;8.27;;;;;;;20.67;100.00;100464.50;4980481;28;20211;-77
2021/06/29 01:42:34;;;;;;;10.02;9.20;;;;;;;20.59;100.00;100467.34;4981096;28;20234;-77
2021/06/29 01:44:59;;;;;;;9.80;9.00;;;;;;;20.66;100.00;100475.88;4977777;28;20225;-77
2021/06/29 01:47:41;;;;;;;10.45;9.55;;;;;;;20.58;100.00;100468.47;4937860;28;20774;-77
2021/06/29 01:50:17;;;;;;;10.10;9.27;;;;;;;20.60;100.00;100469.78;4978868;28;20279;-77
2021/06/29 01:52:46;;;;;;;10.43;9.52;;;;;;;20.50;100.00;100459.16;4974828;28;20178;-77
2021/06/29 01:55:12;;;;;;;9.20;8.48;;;;;;;20.57;100.00;100448.38;4962183;28;20269;-77
2021/06/29 01:57:41;;;;;;;10.82;9.93;;;;;;;20.15;100.00;100451.59;4990017;28;20180;-77
2021/06/29 02:00:08;;;;;;;10.43;9.43;;;;;;;20.23;100.00;100458.16;4972327;28;20663;-77
2021/06/29 02:02:37;;;;;;;10.75;9.88;;;;;;;20.10;100.00;100443.50;4988801;28;20217;-76
2021/06/29 02:05:06;;;;;;;10.30;9.40;;;;;;;20.19;100.00;100457.25;4982760;28;20215;-76
2021/06/29 02:07:33;;;;;;;10.45;9.55;;;;;;;20.20;100.00;100453.31;5010179;28;20709;-76
2021/06/29 02:09:59;;;;;;;10.95;10.05;;;;;;;20.20;100.00;100447.78;4983932;28;20169;-76
2021/06/29 02:12:27;;;;;;;10.77;9.98;;;;;;;20.16;100.00;100442.19;4978707;28;20590;-76
2021/06/29 02:14:55;;;;;;;10.68;9.77;;;;;;;20.15;100.00;100450.78;4980260;28;20181;-77
2021/06/29 02:17:25;;;;;;;10.15;9.35;;;;;;;19.99;100.00;100452.56;4992179;28;20232;-77
2021/06/29 02:19:50;;;;;;;10.57;9.75;;;;;;;20.18;100.00;100455.59;4986719;28;20189;-76
2021/06/29 02:22:16;;;;;;;9.55;8.73;;;;;;;20.36;100.00;100457.06;4972314;28;20299;-76
2021/06/29 02:24:41;;;;;;;9.50;8.60;;;;;;;20.55;100.00;100455.38;4976996;28;20209;-77
2021/06/29 02:27:10;;;;;;;9.63;8.80;;;;;;;20.57;100.00;100448.38;4980860;28;20238;-76
2021/06/29 02:29:36;;;;;;;9.52;8.73;;;;;;;20.53;100.00;100458.47;4972597;28;20268;-76
2021/06/29 02:32:03;;;;;;;8.88;8.18;;;;;;;20.55;100.00;100464.47;4971352;28;20263;-77
2021/06/29 02:34:29;;;;;;;9.50;8.70;;;;;;;20.49;100.00;100467.78;4956300;28;20225;-78
2021/06/29 02:36:57;;;;;;;9.43;8.63;;;;;;;20.35;100.00;100470.06;4974902;28;20221;-77
2021/06/29 02:39:23;;;;;;;9.10;8.40;;;;;;;20.27;100.00;100473.69;4976841;28;20194;-77
2021/06/29 02:41:48;;;;;;;9.23;8.52;;;;;;;20.25;100.00;100475.19;4991741;28;20225;-77
2021/06/29 02:44:14;;;;;;;10.15;9.35;;;;;;;20.38;100.00;100471.31;4991819;28;20220;-77
2021/06/29 02:46:40;;;;;;;9.45;8.65;;;;;;;20.45;100.00;100470.41;4976446;28;20234;-78
2021/06/29 02:49:06;;;;;;;9.55;8.75;;;;;;;20.55;100.00;100467.22;4958623;28;20196;-78
2021/06/29 02:51:32;;;;;;;9.90;9.00;;;;;;;20.46;100.00;100480.31;4970381;28;20312;-77
2021/06/29 02:53:59;;;;;;;9.25;8.55;;;;;;;20.47;100.00;100479.19;4996614;28;20181;-77
2021/06/29 02:56:37;;;;;;;9.43;8.57;;;;;;;20.43;100.00;100488.47;4999447;28;20236;-78
2021/06/29 02:59:09;;;;;;;8.82;8.13;;;;;;;20.46;100.00;100491.34;4988563;28;20174;-78
2021/06/29 03:01:35;;;;;;;8.60;7.93;;;;;;;20.47;100.00;100501.25;4990955;28;20229;-78
2021/06/29 03:04:01;;;;;;;9.05;8.15;;;;;;;20.40;100.00;100505.69;4980422;28;20339;-77
2021/06/29 03:06:29;;;;;;;8.55;7.72;;;;;;;20.41;100.00;100510.06;4983181;28;20229;-78
2021/06/29 03:08:55;;;;;;;8.30;7.55;;;;;;;20.51;100.00;100506.88;4962184;28;20190;-77
2021/06/29 03:11:20;;;;;;;8.27;7.57;;;;;;;20.74;100.00;100508.13;4988215;28;20228;-77
2021/06/29 03:13:46;;;;;;;8.50;7.70;;;;;;;20.81;100.00;100500.91;4991638;28;20181;-78
2021/06/29 03:16:14;;;;;;;7.88;7.22;;;;;;;20.78;100.00;100493.28;5008398;28;20304;-78
2021/06/29 03:18:40;;;;;;;8.05;7.45;;;;;;;20.84;100.00;100491.91;4988203;28;20607;-78
2021/06/29 03:21:08;;;;;;;7.45;6.85;;;;;;;20.90;100.00;100496.88;4974427;28;20224;-78
2021/06/29 03:23:35;;;;;;;7.63;6.93;;;;;;;20.97;100.00;100486.06;5013053;28;20220;-77
2021/06/29 03:26:03;;;;;;;7.40;6.80;;;;;;;20.98;100.00;100489.63;4988992;28;20245;-79
2021/06/29 03:28:29;;;;;;;7.63;6.95;;;;;;;21.05;100.00;100489.88;4993581;28;20224;-77
2021/06/29 03:30:59;;;;;;;7.90;7.30;;;;;;;21.13;100.00;100489.75;4972644;28;20322;-77
2021/06/29 03:33:27;;;;;;;7.72;7.03;;;;;;;21.21;100.00;100493.53;4941737;28;20213;-76
2021/06/29 03:35:52;;;;;;;7.72;7.05;;;;;;;21.23;100.00;100495.63;4949693;28;20231;-78
2021/06/29 03:38:18;;;;;;;8.05;7.25;;;;;;;21.20;100.00;100494.69;4996008;28;20185;-77
2021/06/29 03:40:43;;;;;;;8.10;7.40;;;;;;;21.12;100.00;100498.41;5006988;28;20750;-76
2021/06/29 03:43:09;;;;;;;8.10;7.50;;;;;;;21.14;100.00;100493.31;4980527;28;20257;-77
2021/06/29 03:45:37;;;;;;;8.13;7.43;;;;;;;21.24;100.00;100507.47;4972583;28;20240;-75
2021/06/29 03:48:06;;;;;;;7.97;7.18;;;;;;;21.14;100.00;100507.16;4994397;28;20196;-76
2021/06/29 03:50:32;;;;;;;8.20;7.50;;;;;;;21.23;100.00;100503.91;4993984;28;20607;-77
2021/06/29 03:52:57;;;;;;;8.48;7.78;;;;;;;21.20;100.00;100501.03;4976489;28;20271;-77
2021/06/29 03:55:23;;;;;;;8.35;7.65;;;;;;;21.28;100.00;100500.94;4974900;28;20297;-76
2021/06/29 03:57:49;;;;;;;8.27;7.10;;;;;;;21.26;100.00;100502.41;4975660;28;20198;-77
2021/06/29 04:00:17;;;;;;;7.90;7.20;;;;;;;21.25;100.00;100493.31;4974096;28;20190;-77
2021/06/29 04:02:43;;;;;;;8.35;7.65;;;;;;;21.16;100.00;100493.78;4982326;28;20822;-78
2021/06/29 04:05:16;;;;;;;7.85;7.07;;;;;;;21.11;100.00;100491.25;4972087;28;20226;-77
2021/06/29 04:07:42;;;;;;;8.30;7.50;;;;;;;21.08;100.00;100501.03;4977049;28;20196;-78
2021/06/29 04:10:08;;;;;;;7.93;7.25;;;;;;;21.13;100.00;100494.47;4975323;28;20575;-78
2021/06/29 04:12:34;;;;;;;7.50;6.90;;;;;;;21.30;100.00;100501.38;4963581;28;20198;-78
2021/06/29 04:14:59;;;;;;;7.85;7.25;;;;;;;21.11;100.00;100494.00;4977097;28;20181;-77
2021/06/29 04:17:27;;;;;;;7.95;7.35;;;;;;;21.19;100.00;100493.06;4970653;28;20268;-77
2021/06/29 04:19:53;;;;;;;7.97;7.28;;;;;;;21.13;100.00;100495.25;4938923;28;20190;-78
2021/06/29 04:22:28;;;;;;;7.47;6.88;;;;;;;21.12;100.00;100495.63;4974598;28;20303;-76
2021/06/29 04:24:54;;;;;;;7.35;6.75;;;;;;;21.14;100.00;100501.63;5010369;28;20235;-77
2021/06/29 04:27:22;;;;;;;7.60;7.03;;;;;;;21.16;100.00;100494.59;4982632;28;20703;-77
2021/06/29 04:29:48;;;;;;;7.53;6.88;;;;;;;21.19;100.00;100490.31;4958183;28;20186;-78
2021/06/29 04:32:14;;;;;;;7.50;6.90;;;;;;;21.10;100.00;100495.16;4981625;28;20228;-76
2021/06/29 04:34:42;;;;;;;7.40;6.80;;;;;;;21.14;100.00;100496.88;4995323;28;20180;-77
2021/06/29 04:37:07;;;;;;;6.72;6.18;;;;;;;21.24;100.00;100497.25;4987985;28;20229;-77
2021/06/29 04:39:33;;;;;;;7.63;6.93;;;;;;;21.33;100.00;100497.09;4974855;28;20173;-76
2021/06/29 04:42:01;;;;;;;6.95;6.45;;;;;;;21.34;100.00;100491.25;4962340;28;20217;-77
2021/06/29 04:44:27;;;;;;;6.85;6.25;;;;;;;21.38;100.00;100497.69;4955880;28;20222;-77
2021/06/29 04:46:53;;;;;;;6.28;5.78;;;;;;;21.44;100.00;100488.03;4988290;28;20229;-77
2021/06/29 04:49:21;;;;;;;6.60;6.03;;;;;;;21.56;100.00;100488.03;4994656;28;20181;-78
2021/06/29 04:51:52;;;;;;;6.25;5.75;;;;;;;21.58;100.00;100473.84;4993206;28;20278;-77
2021/06/29 04:54:22;;;;;;;14.80;13.40;;;;;;;21.63;100.00;100479.94;4974688;28;20182;-77
2021/06/29 04:56:48;;;;;;;25.35;21.77;;;;;;;21.72;100.00;100472.28;4971862;28;20226;-77
2021/06/29 04:59:14;;;;;;;7.85;7.03;;;;;;;21.84;100.00;100473.06;5005763;28;20193;-75
2021/06/29 05:01:39;;;;;;;6.10;5.60;;;;;;;21.73;100.00;100471.16;4989503;28;20244;-75
2021/06/29 05:04:10;;;;;;;6.22;5.63;;;;;;;21.68;100.00;100471.38;5025805;28;20255;-76
2021/06/29 05:06:36;;;;;;;5.65;5.15;;;;;;;21.84;100.00;100472.28;5009666;28;20232;-73
2021/06/29 05:09:01;;;;;;;6.85;5.70;;;;;;;22.13;100.00;100468.00;4993645;28;20192;-73
2021/06/29 05:11:27;;;;;;;6.43;5.32;;;;;;;22.28;100.00;100466.47;4990521;28;20216;-74
2021/06/29 05:13:55;;;;;;;5.85;5.30;;;;;;;22.19;100.00;100465.81;4975136;28;20194;-79
2021/06/29 05:16:20;;;;;;;6.40;5.65;;;;;;;22.20;100.00;100465.47;4954785;28;20592;-76
2021/06/29 05:18:51;;;;;;;5.38;4.88;;;;;;;22.38;100.00;100466.78;4983415;28;20185;-76
2021/06/29 05:21:17;;;;;;;8.82;6.40;;;;;;;22.71;100.00;100467.25;4947365;28;20790;-77
2021/06/29 05:23:42;;;;;;;9.13;8.18;;;;;;;22.77;100.00;100472.16;4955392;28;20198;-76
2021/06/29 05:26:16;;;;;;;5.47;4.85;;;;;;;23.00;100.00;100460.16;4922403;28;20222;-77
2021/06/29 05:28:42;;;;;;;4.75;4.35;;;;;;;23.03;100.00;100456.63;4946688;28;20193;-76
2021/06/29 05:31:10;;;;;;;4.93;4.53;;;;;;;23.20;100.00;100446.00;4978615;28;20221;-75
2021/06/29 05:33:36;;;;;;;4.22;3.70;;;;;;;23.32;100.00;100442.28;4971127;28;20185;-77
2021/06/29 05:36:06;;;;;;;4.95;4.05;;;;;;;23.21;100.00;100430.94;4963255;28;20222;-77
2021/06/29 05:38:38;;;;;;;5.22;3.42;;;;;;;23.53;100.00;100432.47;4999371;28;20197;-76
2021/06/29 05:41:07;;;;;;;4.70;3.58;;;;;;;23.85;100.00;100432.03;4964953;28;20324;-77
2021/06/29 05:43:32;;;;;;;7.05;4.15;;;;;;;23.82;100.00;100423.63;4992975;28;20280;-77
2021/06/29 05:46:02;;;;;;;3.75;3.33;;;;;;;23.93;100.00;100432.97;4972642;28;20232;-78
2021/06/29 05:48:32;;;;;;;4.65;3.40;;;;;;;24.19;100.00;100417.22;4981469;28;20189;-77
2021/06/29 05:51:00;;;;;;;4.60;3.47;;;;;;;24.19;99.85;100429.13;4992101;28;20221;-77
2021/06/29 05:53:29;;;;;;;3.17;2.95;;;;;;;24.03;99.23;100414.56;4984772;28;20255;-78
2021/06/29 05:55:57;;;;;;;5.10;3.20;;;;;;;24.05;99.99;100431.66;4940245;28;20226;-77
2021/06/29 05:58:23;;;;;;;3.53;3.20;;;;;;;23.90;99.19;100437.28;4968888;28;20207;-78
2021/06/29 06:00:51;;;;;;;3.85;3.30;;;;;;;23.68;100.00;100435.25;4970000;28;20220;-77
2021/06/29 06:03:20;;;;;;;3.35;3.03;;;;;;;23.62;100.00;100446.97;4954868;28;20674;-77
2021/06/29 06:05:46;;;;;;;4.65;3.30;;;;;;;23.45;100.00;100452.09;4938626;28;20225;-77
2021/06/29 06:08:12;;;;;;;3.63;3.30;;;;;;;23.28;100.00;100452.50;4951726;28;20214;-78
2021/06/29 06:10:37;;;;;;;6.13;3.65;;;;;;;23.22;100.00;100442.84;4960302;28;20220;-77
2021/06/29 06:13:07;;;;;;;3.97;3.20;;;;;;;23.32;100.00;100440.31;5000317;28;20182;-77
2021/06/29 06:15:35;;;;;;;3.45;3.17;;;;;;;23.44;100.00;100445.75;5008854;28;20779;-78
2021/06/29 06:18:05;;;;;;;4.07;3.70;;;;;;;23.70;100.00;100438.44;4993916;28;20189;-77
2021/06/29 06:20:36;;;;;;;3.65;3.33;;;;;;;23.86;100.00;100453.03;4970434;28;20246;-78
2021/06/29 06:23:02;;;;;;;4.57;3.60;;;;;;;24.21;100.00;100448.22;4974298;28;20298;-79
2021/06/29 06:25:28;;;;;;;5.18;3.90;;;;;;;24.18;100.00;100460.88;5028879;28;20241;-78
2021/06/29 06:27:53;;;;;;;3.67;3.10;;;;;;;24.19;99.53;100445.78;4990804;28;20253;-79
2021/06/29 06:30:19;;;;;;;3.55;3.25;;;;;;;24.08;100.00;100449.53;4987745;28;20198;-79
2021/06/29 06:32:45;;;;;;;4.13;3.28;;;;;;;24.15;100.00;100444.94;4978658;28;20197;-79
2021/06/29 06:35:11;;;;;;;4.35;3.95;;;;;;;24.32;99.03;100449.25;5001044;28;20193;-79
2021/06/29 06:37:39;;;;;;;5.07;3.55;;;;;;;24.57;97.11;100446.56;4979898;28;20186;-78
2021/06/29 06:40:05;;;;;;;4.80;3.85;;;;;;;24.27;98.58;100457.91;4983302;28;20281;-77
2021/06/29 06:42:31;;;;;;;3.95;3.58;;;;;;;24.36;98.33;100450.94;4991029;28;20634;-77
2021/06/29 06:45:02;;;;;;;4.05;3.70;;;;;;;24.26;98.26;100462.59;4989734;28;20209;-78
2021/06/29 06:47:27;;;;;;;4.47;3.50;;;;;;;24.34;98.95;100456.06;4975138;28;20248;-77
2021/06/29 06:49:56;;;;;;;4.38;3.40;;;;;;;24.06;100.00;100463.78;4987426;28;20195;-78
2021/06/29 06:52:24;;;;;;;4.97;3.67;;;;;;;23.64;100.00;100481.53;4988653;28;20699;-76
2021/06/29 06:54:50;;;;;;;3.65;3.30;;;;;;;23.88;100.00;100475.69;4957717;28;20196;-77
2021/06/29 06:57:15;;;;;;;3.53;3.17;;;;;;;24.17;100.00;100497.31;4979687;28;20661;-76
2021/06/29 06:59:43;;;;;;;3.42;2.97;;;;;;;23.86;100.00;100503.00;4969479;28;20186;-76
2021/06/29 07:02:09;;;;;;;3.92;3.47;;;;;;;23.75;100.00;100501.97;4952062;28;20249;-77
2021/06/29 07:04:37;;;;;;;4.07;3.60;;;;;;;23.60;100.00;100510.34;4965892;28;20279;-76
2021/06/29 07:07:03;;;;;;;4.88;3.28;;;;;;;23.31;100.00;100529.41;4976805;28;20247;-76
2021/06/29 07:09:28;;;;;;;4.35;3.50;;;;;;;23.40;100.00;100521.72;4965183;28;20562;-77
2021/06/29 07:11:54;;;;;;;4.30;3.50;;;;;;;23.32;100.00;100514.41;4968670;28;20600;-77
2021/06/29 07:14:20;;;;;;;4.97;3.70;;;;;;;23.12;100.00;100514.69;4985080;28;20182;-77
2021/06/29 07:16:51;;;;;;;4.82;4.00;;;;;;;22.79;100.00;100506.66;4964966;28;20218;-80
2021/06/29 07:19:21;;;;;;;5.03;3.80;;;;;;;22.65;100.00;100499.94;4956172;28;20691;-76
2021/06/29 07:21:51;;;;;;;4.10;3.80;;;;;;;22.52;100.00;100503.94;4973850;28;20637;-77
2021/06/29 07:24:17;;;;;;;4.93;4.10;;;;;;;22.36;100.00;100513.38;4975822;28;20608;-79
2021/06/29 07:26:42;;;;;;;4.72;4.32;;;;;;;22.26;100.00;100508.34;4955108;28;20238;-77
2021/06/29 07:29:11;;;;;;;4.72;4.32;;;;;;;22.12;100.00;100507.94;4936620;28;20289;-77
2021/06/29 07:31:39;;;;;;;5.43;4.82;;;;;;;22.17;100.00;100499.38;4936938;29;20222;-75
2021/06/29 07:34:07;;;;;;;6.13;5.63;;;;;;;22.07;100.00;100494.31;4922529;29;20176;-75
2021/06/29 07:36:32;;;;;;;6.05;5.55;;;;;;;22.16;100.00;100489.50;4972798;28;20237;-75
2021/06/29 07:38:58;;;;;;;11.05;6.53;;;;;;;22.17;100.00;100480.00;4960406;28;20193;-75
2021/06/29 07:41:25;;;;;;;6.95;5.95;;;;;;;21.78;100.00;100484.75;4958671;28;20222;-77
2021/06/29 07:43:52;;;;;;;7.03;6.53;;;;;;;21.83;100.00;100488.06;4983994;28;20220;-76
2021/06/29 07:46:17;;;;;;;7.57;6.78;;;;;;;21.82;100.00;100485.66;4971216;28;20229;-76
2021/06/29 07:48:43;;;;;;;7.45;6.65;;;;;;;21.77;100.00;100483.13;4993082;28;20651;-75
2021/06/29 07:51:09;;;;;;;7.75;7.05;;;;;;;21.74;100.00;100483.84;4987997;28;20267;-76
2021/06/29 07:53:36;;;;;;;7.55;6.82;;;;;;;21.65;100.00;100497.00;5012895;28;20188;-76
2021/06/29 07:56:13;;;;;;;8.38;7.18;;;;;;;21.69;100.00;100490.41;4982237;28;20222;-76
2021/06/29 07:58:39;;;;;;;7.93;7.22;;;;;;;21.82;100.00;100491.19;4967505;28;20193;-76
2021/06/29 08:01:07;;;;;;;8.07;7.15;;;;;;;21.84;100.00;100486.91;4977295;28;20221;-75
2021/06/29 08:03:38;;;;;;;9.07;7.80;;;;;;;21.82;100.00;100478.16;5011976;28;20248;-75
2021/06/29 08:06:11;;;;;;;9.45;8.65;;;;;;;21.81;100.00;100478.50;4981238;28;20241;-75
2021/06/29 08:08:40;;;;;;;9.45;8.48;;;;;;;21.93;100.00;100481.25;4957004;28;20190;-76
2021/06/29 08:11:09;;;;;;;9.15;8.48;;;;;;;21.71;100.00;100490.84;4973812;28;20220;-75
2021/06/29 08:13:35;;;;;;;10.40;9.32;;;;;;;21.94;100.00;100488.38;4970153;28;20224;-74
2021/06/29 08:16:00;;;;;;;9.95;8.98;;;;;;;22.02;100.00;100486.25;4984282;28;20222;-76
2021/06/29 08:18:28;;;;;;;10.38;9.10;;;;;;;22.07;100.00;100488.78;4941833;28;20622;-75
2021/06/29 08:20:57;;;;;;;10.77;9.68;;;;;;;22.08;100.00;100478.53;4979238;28;20276;-75
2021/06/29 08:23:25;;;;;;;12.60;11.40;;;;;;;22.20;100.00;100476.53;4976396;28;20197;-75
2021/06/29 08:25:56;;;;;;;12.93;11.75;;;;;;;22.15;100.00;100470.44;4996315;28;20286;-75
2021/06/29 08:28:24;;;;;;;11.95;10.93;;;;;;;22.09;100.00;100460.78;4988401;28;20197;-75
2021/06/29 08:30:51;;;;;;;13.30;12.00;;;;;;;21.93;100.00;100459.91;4970804;28;20239;-75
2021/06/29 08:33:20;;;;;;;13.88;12.55;;;;;;;21.96;100.00;100452.84;4972808;28;20191;-76
2021/06/29 08:35:49;;;;;;;13.35;12.10;;;;;;;22.06;100.00;100453.97;4963677;28;20227;-75
2021/06/29 08:38:20;;;;;;;13.45;12.15;;;;;;;22.27;100.00;100457.38;4995214;28;20181;-76
2021/06/29 08:40:46;;;;;;;14.15;12.82;;;;;;;22.38;100.00;100450.16;4988110;28;20272;-76
2021/06/29 08:43:12;;;;;;;13.00;11.80;;;;;;;22.26;100.00;100450.22;4979473;28;20201;-75
2021/06/29 08:45:40;;;;;;;12.75;11.55;;;;;;;22.33;100.00;100446.84;4975875;28;20221;-76
2021/06/29 08:48:06;;;;;;;13.73;12.32;;;;;;;22.14;100.00;100438.34;4994443;28;20185;-77
2021/06/29 08:50:38;;;;;;;12.75;11.43;;;;;;;22.19;100.00;100432.59;4993301;28;20244;-76
2021/06/29 08:53:08;;;;;;;13.02;11.82;;;;;;;22.26;100.00;100447.44;4975664;28;20178;-77
2021/06/29 08:55:47;;;;;;;14.98;13.50;;;;;;;22.15;100.00;100435.28;4974480;28;20229;-76
2021/06/29 08:58:20;;;;;;;14.48;13.18;;;;;;;22.35;100.00;100444.53;4985690;28;20194;-76
2021/06/29 09:00:51;;;;;;;14.63;13.40;;;;;;;22.54;100.00;100434.34;4973510;28;20221;-76
2021/06/29 09:03:19;;;;;;;14.55;13.25;;;;;;;22.66;100.00;100437.06;4990797;28;20181;-77
2021/06/29 09:05:52;;;;;;;15.27;13.35;;;;;;;22.73;100.00;100428.91;4973718;28;20734;-79
2021/06/29 09:08:19;;;;;;;15.32;13.82;;;;;;;22.62;100.00;100431.41;4955627;28;20658;-77
2021/06/29 09:11:17;;;;;;;14.35;13.10;;;;;;;22.67;100.00;100428.38;4943789;28;20225;-76
2021/06/29 09:14:02;;;;;;;14.82;13.35;;;;;;;22.74;100.00;100433.28;4984847;28;20189;-77
2021/06/29 09:16:27;;;;;;;14.85;13.32;;;;;;;22.88;100.00;100426.97;4986266;28;20313;-76
2021/06/29 09:18:55;;;;;;;13.48;12.18;;;;;;;22.79;100.00;100418.00;4939290;28;20186;-76
2021/06/29 09:21:23;;;;;;;13.35;12.02;;;;;;;22.92;100.00;100422.31;4968748;28;20241;-77
2021/06/29 09:23:54;;;;;;;11.48;10.43;;;;;;;22.65;100.00;100416.84;4993638;28;20690;-76
2021/06/29 09:26:24;;;;;;;12.98;11.82;;;;;;;23.02;100.00;100427.34;4990659;28;20260;-75
2021/06/29 09:28:54;;;;;;;11.95;10.85;;;;;;;23.29;100.00;100431.91;4974574;28;20193;-76
2021/06/29 09:31:27;;;;;;;11.95;9.80;;;;;;;23.55;100.00;100427.34;4963123;28;20329;-77
2021/06/29 09:33:54;;;;;;;10.60;9.77;;;;;;;23.71;100.00;100428.94;4955854;28;20182;-76
2021/06/29 09:36:21;;;;;;;8.75;7.95;;;;;;;23.85;100.00;100429.25;4954169;28;20234;-77
2021/06/29 09:38:50;;;;;;;7.15;6.55;;;;;;;23.64;100.00;100428.81;4955069;28;20230;-76
2021/06/29 09:41:21;;;;;;;8.40;7.60;;;;;;;23.57;100.00;100431.41;4961335;28;20260;-76
2021/06/29 09:43:48;;;;;;;7.40;6.57;;;;;;;23.45;100.00;100441.00;4960340;28;20211;-76
2021/06/29 09:46:17;;;;;;;6.85;6.35;;;;;;;23.41;100.00;100452.03;4936554;28;20305;-78
2021/06/29 09:49:01;;;;;;;7.10;6.55;;;;;;;23.34;100.00;100453.81;4955305;28;20218;-76
2021/06/29 09:51:31;;;;;;;7.30;6.70;;;;;;;23.54;100.00;100458.25;4954402;28;20268;-76
2021/06/29 09:54:00;;;;;;;8.43;7.72;;;;;;;23.41;100.00;100448.44;4951499;29;20182;-77
2021/06/29 09:56:36;;;;;;;6.70;6.10;;;;;;;23.46;100.00;100448.16;4961553;28;20321;-76
2021/06/29 09:59:01;;;;;;;7.57;6.97;;;;;;;23.36;100.00;100452.28;4985694;28;20972;-76
2021/06/29 10:01:32;;;;;;;7.90;7.22;;;;;;;23.56;100.00;100455.91;4969307;28;20230;-77
2021/06/29 10:04:01;;;;;;;7.63;7.03;;;;;;;23.72;100.00;100441.66;4955345;28;20218;-77
2021/06/29 10:06:28;;;;;;;7.93;7.32;;;;;;;23.73;100.00;100443.25;4971013;28;20982;-77
2021/06/29 10:09:15;;;;;;;8.27;7.57;;;;;;;23.70;100.00;100438.44;4991115;28;20588;-76
2021/06/29 10:11:51;;;;;;;7.90;7.20;;;;;;;23.86;100.00;100439.16;4993899;28;20220;-76
2021/06/29 10:14:17;;;;;;;8.18;6.35;;;;;;;23.84;100.00;100435.94;4989406;28;20201;-76
2021/06/29 10:16:44;;;;;;;6.70;6.10;;;;;;;23.47;100.00;100433.13;4992630;28;20322;-77
2021/06/29 10:19:17;;;;;;;7.13;6.53;;;;;;;23.64;100.00;100430.75;4992802;28;20180;-78
2021/06/29 10:21:51;;;;;;;7.00;6.47;;;;;;;23.59;100.00;100431.88;4992962;28;20239;-77
2021/06/29 10:24:20;;;;;;;6.93;6.38;;;;;;;23.80;100.00;100431.50;4971994;28;20213;-77
2021/06/29 10:26:46;;;;;;;7.40;6.80;;;;;;;23.97;100.00;100426.31;4978230;28;20233;-77
2021/06/29 10:29:15;;;;;;;7.07;6.50;;;;;;;24.16;100.00;100429.09;4991062;28;20658;-76
2021/06/29 10:31:51;;;;;;;6.07;5.68;;;;;;;24.22;100.00;100427.63;4972814;28;20229;-77
2021/06/29 10:34:24;;;;;;;6.50;5.90;;;;;;;24.38;100.00;100426.38;4975113;28;20228;-76
2021/06/29 10:36:51;;;;;;;6.38;5.85;;;;;;;24.59;100.00;100422.00;4973942;28;20233;-76
2021/06/29 10:39:22;;;;;;;6.47;6.05;;;;;;;24.66;100.00;100430.47;4973944;28;20178;-77
2021/06/29 10:42:09;;;;;;;5.82;5.40;;;;;;;24.59;100.00;100426.75;4974539;28;20233;-76
2021/06/29 10:44:42;;;;;;;8.45;7.75;;;;;;;24.53;100.00;100429.03;4992512;28;20679;-75
2021/06/29 10:47:30;;;;;;;9.05;8.30;;;;;;;24.48;100.00;100429.34;4977986;28;20225;-76
2021/06/29 10:49:59;;;;;;;5.53;5.13;;;;;;;24.40;100.00;100430.38;4977519;28;20190;-76
2021/06/29 10:52:25;;;;;;;6.57;5.97;;;;;;;24.25;100.00;100418.53;4956613;28;20267;-76
2021/06/29 10:54:57;;;;;;;6.38;5.97;;;;;;;24.33;100.00;100417.53;5022799;28;20592;-75
2021/06/29 10:57:27;;;;;;;6.05;5.45;;;;;;;24.32;100.00;100418.69;4968846;28;20609;-74
2021/06/29 10:59:55;;;;;;;5.93;5.43;;;;;;;24.25;100.00;100415.75;4997714;28;20240;-75
2021/06/29 11:02:36;;;;;;;6.20;5.78;;;;;;;24.18;100.00;100421.19;4974666;28;20233;-76
2021/06/29 11:05:05;;;;;;;6.32;5.88;;;;;;;23.96;100.00;100419.16;4977481;28;21064;-76
2021/06/29 11:07:31;;;;;;;6.40;5.93;;;;;;;23.83;100.00;100419.69;4976733;28;20230;-76
2021/06/29 11:09:57;;;;;;;6.45;5.97;;;;;;;23.68;100.00;100426.91;4976119;28;20212;-75
2021/06/29 11:12:26;;;;;;;7.00;6.40;;;;;;;23.58;100.00;100415.56;4968072;28;20229;-76
2021/06/29 11:14:53;;;;;;;7.38;6.78;;;;;;;23.66;100.00;100414.56;4976573;28;20197;-76
2021/06/29 11:17:20;;;;;;;6.85;6.35;;;;;;;23.42;100.00;100419.53;4972883;28;20315;-76
2021/06/29 11:20:00;;;;;;;7.50;6.88;;;;;;;23.50;100.00;100426.84;4963090;28;20643;-77
2021/06/29 11:22:58;;;;;;;7.07;6.47;;;;;;;23.50;100.00;100424.06;4955282;28;20261;-75
2021/06/29 11:25:46;;;;;;;7.20;6.70;;;;;;;23.55;100.00;100419.03;4977215;28;20288;-76
2021/06/29 11:28:11;;;;;;;7.75;7.22;;;;;;;23.44;100.00;100433.84;4970460;28;20194;-74